sensor_id;sensor_type;location;lat;lon;timestamp;P1;durP1;ratioP1;P2;durP2;ratioP2
35128;SDS011;21301;43.626;10.580;2023-12-07T00:01:11;43.95;;;17.40;;
35128;SDS011;21301;43.626;10.580;2023-12-07T00:03:36;45.00;;;18.85;;
35128;SDS011;21301;43.626;10.580;2023-12-07T00:06:02;45.83;;;19.90;;
35128;SDS011;21301;43.626;10.580;2023-12-07T00:08:28;34.53;;;16.23;;
35128;SDS011;21301;43.626;10.580;2023-12-07T00:10:53;28.95;;;13.15;;
35128;SDS011;21301;43.626;10.580;2023-12-07T00:13:19;36.80;;;15.50;;
35128;SDS011;21301;43.626;10.580;2023-12-07T00:15:44;33.75;;;14.73;;
35128;SDS011;21301;43.626;10.580;2023-12-07T00:18:10;32.00;;;14.00;;
35128;SDS011;21301;43.626;10.580;2023-12-07T00:20:35;32.75;;;16.48;;
35128;SDS011;21301;43.626;10.580;2023-12-07T00:23:01;33.60;;;15.50;;
35128;SDS011;21301;43.626;10.580;2023-12-07T00:25:27;31.38;;;15.60;;
35128;SDS011;21301;43.626;10.580;2023-12-07T00:27:52;31.42;;;15.10;;
35128;SDS011;21301;43.626;10.580;2023-12-07T00:31:47;38.58;;;19.10;;
35128;SDS011;21301;43.626;10.580;2023-12-07T00:34:13;36.35;;;15.68;;
35128;SDS011;21301;43.626;10.580;2023-12-07T00:36:44;30.30;;;14.52;;
35128;SDS011;21301;43.626;10.580;2023-12-07T00:39:15;34.47;;;13.02;;
35128;SDS011;21301;43.626;10.580;2023-12-07T00:41:43;31.13;;;12.77;;
35128;SDS011;21301;43.626;10.580;2023-12-07T00:44:10;42.17;;;16.98;;
35128;SDS011;21301;43.626;10.580;2023-12-07T00:46:38;33.85;;;15.48;;
35128;SDS011;21301;43.626;10.580;2023-12-07T00:49:05;27.70;;;13.63;;
35128;SDS011;21301;43.626;10.580;2023-12-07T00:51:31;31.83;;;12.77;;
35128;SDS011;21301;43.626;10.580;2023-12-07T00:53:58;33.50;;;15.27;;
35128;SDS011;21301;43.626;10.580;2023-12-07T00:56:52;27.27;;;12.27;;
35128;SDS011;21301;43.626;10.580;2023-12-07T00:59:29;32.25;;;13.93;;
35128;SDS011;21301;43.626;10.580;2023-12-07T01:02:00;36.45;;;15.27;;
35128;SDS011;21301;43.626;10.580;2023-12-07T01:04:30;34.10;;;13.48;;
35128;SDS011;21301;43.626;10.580;2023-12-07T01:07:02;26.27;;;13.80;;
35128;SDS011;21301;43.626;10.580;2023-12-07T01:09:30;36.53;;;15.02;;
35128;SDS011;21301;43.626;10.580;2023-12-07T01:12:04;28.40;;;13.25;;
35128;SDS011;21301;43.626;10.580;2023-12-07T01:14:33;34.95;;;12.85;;
35128;SDS011;21301;43.626;10.580;2023-12-07T01:17:03;41.97;;;16.63;;
35128;SDS011;21301;43.626;10.580;2023-12-07T01:19:39;36.15;;;16.65;;
35128;SDS011;21301;43.626;10.580;2023-12-07T01:22:11;35.30;;;13.70;;
35128;SDS011;21301;43.626;10.580;2023-12-07T01:24:38;34.03;;;15.15;;
35128;SDS011;21301;43.626;10.580;2023-12-07T01:27:13;27.80;;;12.60;;
35128;SDS011;21301;43.626;10.580;2023-12-07T01:32:39;28.85;;;12.88;;
35128;SDS011;21301;43.626;10.580;2023-12-07T01:35:11;27.88;;;13.32;;
35128;SDS011;21301;43.626;10.580;2023-12-07T01:37:56;34.15;;;13.43;;
35128;SDS011;21301;43.626;10.580;2023-12-07T01:40:28;27.98;;;13.80;;
35128;SDS011;21301;43.626;10.580;2023-12-07T01:43:03;30.25;;;13.50;;
35128;SDS011;21301;43.626;10.580;2023-12-07T01:45:31;30.25;;;13.27;;
35128;SDS011;21301;43.626;10.580;2023-12-07T01:48:02;29.05;;;14.55;;
35128;SDS011;21301;43.626;10.580;2023-12-07T01:50:34;26.00;;;13.18;;
35128;SDS011;21301;43.626;10.580;2023-12-07T01:53:01;34.70;;;14.88;;
35128;SDS011;21301;43.626;10.580;2023-12-07T01:58:08;27.00;;;11.55;;
35128;SDS011;21301;43.626;10.580;2023-12-07T02:00:44;26.88;;;13.40;;
35128;SDS011;21301;43.626;10.580;2023-12-07T02:03:16;32.38;;;13.65;;
35128;SDS011;21301;43.626;10.580;2023-12-07T02:05:48;27.67;;;14.18;;
35128;SDS011;21301;43.626;10.580;2023-12-07T02:08:16;26.40;;;13.55;;
35128;SDS011;21301;43.626;10.580;2023-12-07T02:10:49;25.00;;;12.15;;
35128;SDS011;21301;43.626;10.580;2023-12-07T02:13:19;25.60;;;12.20;;
35128;SDS011;21301;43.626;10.580;2023-12-07T02:16:03;26.05;;;13.30;;
35128;SDS011;21301;43.626;10.580;2023-12-07T02:22:12;26.20;;;12.93;;
35128;SDS011;21301;43.626;10.580;2023-12-07T02:24:48;27.58;;;12.88;;
35128;SDS011;21301;43.626;10.580;2023-12-07T02:30:20;22.10;;;11.02;;
35128;SDS011;21301;43.626;10.580;2023-12-07T02:33:14;23.85;;;10.55;;
35128;SDS011;21301;43.626;10.580;2023-12-07T02:35:48;20.45;;;10.77;;
35128;SDS011;21301;43.626;10.580;2023-12-07T02:38:18;27.83;;;12.95;;
35128;SDS011;21301;43.626;10.580;2023-12-07T02:41:03;19.00;;;9.88;;
35128;SDS011;21301;43.626;10.580;2023-12-07T02:43:29;26.15;;;11.25;;
35128;SDS011;21301;43.626;10.580;2023-12-07T02:45:59;21.70;;;9.30;;
35128;SDS011;21301;43.626;10.580;2023-12-07T02:48:26;22.23;;;10.90;;
35128;SDS011;21301;43.626;10.580;2023-12-07T02:51:01;26.95;;;11.98;;
35128;SDS011;21301;43.626;10.580;2023-12-07T02:53:31;26.58;;;11.80;;
35128;SDS011;21301;43.626;10.580;2023-12-07T02:56:01;20.83;;;8.93;;
35128;SDS011;21301;43.626;10.580;2023-12-07T02:58:32;22.05;;;10.65;;
35128;SDS011;21301;43.626;10.580;2023-12-07T03:01:00;25.73;;;11.95;;
35128;SDS011;21301;43.626;10.580;2023-12-07T03:03:27;22.48;;;10.43;;
35128;SDS011;21301;43.626;10.580;2023-12-07T03:05:55;19.58;;;9.90;;
35128;SDS011;21301;43.626;10.580;2023-12-07T03:08:22;20.10;;;10.55;;
35128;SDS011;21301;43.626;10.580;2023-12-07T03:10:55;22.63;;;12.40;;
35128;SDS011;21301;43.626;10.580;2023-12-07T03:13:25;22.13;;;9.70;;
35128;SDS011;21301;43.626;10.580;2023-12-07T03:16:09;21.83;;;10.43;;
35128;SDS011;21301;43.626;10.580;2023-12-07T03:18:55;28.48;;;11.68;;
35128;SDS011;21301;43.626;10.580;2023-12-07T03:21:38;19.77;;;10.13;;
35128;SDS011;21301;43.626;10.580;2023-12-07T03:24:18;23.65;;;9.70;;
35128;SDS011;21301;43.626;10.580;2023-12-07T03:26:45;18.75;;;9.15;;
35128;SDS011;21301;43.626;10.580;2023-12-07T03:29:12;17.17;;;9.50;;
35128;SDS011;21301;43.626;10.580;2023-12-07T03:31:39;19.00;;;9.15;;
35128;SDS011;21301;43.626;10.580;2023-12-07T03:34:05;20.42;;;9.32;;
35128;SDS011;21301;43.626;10.580;2023-12-07T03:36:31;23.67;;;8.13;;
35128;SDS011;21301;43.626;10.580;2023-12-07T03:38:57;20.92;;;8.95;;
35128;SDS011;21301;43.626;10.580;2023-12-07T03:41:23;23.45;;;9.73;;
35128;SDS011;21301;43.626;10.580;2023-12-07T03:43:52;21.58;;;11.07;;
35128;SDS011;21301;43.626;10.580;2023-12-07T03:46:21;18.90;;;9.52;;
35128;SDS011;21301;43.626;10.580;2023-12-07T03:48:54;28.88;;;10.52;;
35128;SDS011;21301;43.626;10.580;2023-12-07T03:51:29;24.17;;;10.32;;
35128;SDS011;21301;43.626;10.580;2023-12-07T03:56:44;21.80;;;9.52;;
35128;SDS011;21301;43.626;10.580;2023-12-07T03:59:16;20.40;;;10.43;;
35128;SDS011;21301;43.626;10.580;2023-12-07T04:01:48;24.58;;;11.63;;
35128;SDS011;21301;43.626;10.580;2023-12-07T04:04:14;18.38;;;9.38;;
35128;SDS011;21301;43.626;10.580;2023-12-07T04:06:40;20.63;;;8.52;;
35128;SDS011;21301;43.626;10.580;2023-12-07T04:09:05;25.92;;;12.52;;
35128;SDS011;21301;43.626;10.580;2023-12-07T04:11:31;23.42;;;12.23;;
35128;SDS011;21301;43.626;10.580;2023-12-07T04:13:57;21.52;;;9.48;;
35128;SDS011;21301;43.626;10.580;2023-12-07T04:16:22;19.00;;;9.63;;
35128;SDS011;21301;43.626;10.580;2023-12-07T04:18:48;25.05;;;10.43;;
35128;SDS011;21301;43.626;10.580;2023-12-07T04:21:16;18.13;;;9.32;;
35128;SDS011;21301;43.626;10.580;2023-12-07T04:23:41;17.48;;;8.27;;
35128;SDS011;21301;43.626;10.580;2023-12-07T04:26:08;15.80;;;8.68;;
35128;SDS011;21301;43.626;10.580;2023-12-07T04:28:34;23.20;;;10.98;;
35128;SDS011;21301;43.626;10.580;2023-12-07T04:31:00;24.38;;;10.80;;
35128;SDS011;21301;43.626;10.580;2023-12-07T04:33:25;25.40;;;11.60;;
35128;SDS011;21301;43.626;10.580;2023-12-07T04:35:51;26.85;;;10.70;;
35128;SDS011;21301;43.626;10.580;2023-12-07T04:38:17;19.48;;;8.48;;
35128;SDS011;21301;43.626;10.580;2023-12-07T04:40:42;21.27;;;11.38;;
35128;SDS011;21301;43.626;10.580;2023-12-07T04:43:08;25.35;;;11.55;;
35128;SDS011;21301;43.626;10.580;2023-12-07T04:45:33;27.45;;;11.93;;
35128;SDS011;21301;43.626;10.580;2023-12-07T04:47:59;23.50;;;10.93;;
35128;SDS011;21301;43.626;10.580;2023-12-07T04:50:25;31.75;;;12.82;;
35128;SDS011;21301;43.626;10.580;2023-12-07T04:52:51;25.02;;;12.68;;
35128;SDS011;21301;43.626;10.580;2023-12-07T04:55:16;32.45;;;13.20;;
35128;SDS011;21301;43.626;10.580;2023-12-07T04:57:43;28.52;;;12.38;;
35128;SDS011;21301;43.626;10.580;2023-12-07T05:00:08;30.10;;;13.95;;
35128;SDS011;21301;43.626;10.580;2023-12-07T05:02:35;26.95;;;13.00;;
35128;SDS011;21301;43.626;10.580;2023-12-07T05:05:01;28.23;;;10.90;;
35128;SDS011;21301;43.626;10.580;2023-12-07T05:07:28;28.00;;;13.18;;
35128;SDS011;21301;43.626;10.580;2023-12-07T05:09:54;25.88;;;15.30;;
35128;SDS011;21301;43.626;10.580;2023-12-07T05:12:19;23.58;;;12.10;;
35128;SDS011;21301;43.626;10.580;2023-12-07T05:14:45;30.85;;;12.65;;
35128;SDS011;21301;43.626;10.580;2023-12-07T05:17:10;20.45;;;10.57;;
35128;SDS011;21301;43.626;10.580;2023-12-07T05:19:36;27.08;;;11.60;;
35128;SDS011;21301;43.626;10.580;2023-12-07T05:22:01;34.65;;;11.55;;
35128;SDS011;21301;43.626;10.580;2023-12-07T05:24:27;23.67;;;11.52;;
35128;SDS011;21301;43.626;10.580;2023-12-07T05:26:53;27.27;;;12.85;;
35128;SDS011;21301;43.626;10.580;2023-12-07T05:29:18;22.45;;;12.10;;
35128;SDS011;21301;43.626;10.580;2023-12-07T05:31:44;21.48;;;11.13;;
35128;SDS011;21301;43.626;10.580;2023-12-07T05:34:13;17.05;;;8.65;;
35128;SDS011;21301;43.626;10.580;2023-12-07T05:36:39;24.85;;;10.25;;
35128;SDS011;21301;43.626;10.580;2023-12-07T05:39:05;19.42;;;8.98;;
35128;SDS011;21301;43.626;10.580;2023-12-07T05:41:32;20.30;;;9.48;;
35128;SDS011;21301;43.626;10.580;2023-12-07T05:43:59;26.88;;;11.02;;
35128;SDS011;21301;43.626;10.580;2023-12-07T05:46:24;25.60;;;12.45;;
35128;SDS011;21301;43.626;10.580;2023-12-07T05:48:50;25.00;;;10.25;;
35128;SDS011;21301;43.626;10.580;2023-12-07T05:51:16;22.27;;;11.43;;
35128;SDS011;21301;43.626;10.580;2023-12-07T05:53:42;24.48;;;11.00;;
35128;SDS011;21301;43.626;10.580;2023-12-07T05:56:09;19.00;;;8.45;;
35128;SDS011;21301;43.626;10.580;2023-12-07T05:58:35;27.55;;;10.52;;
35128;SDS011;21301;43.626;10.580;2023-12-07T06:01:01;24.58;;;11.45;;
35128;SDS011;21301;43.626;10.580;2023-12-07T06:03:28;21.20;;;9.13;;
35128;SDS011;21301;43.626;10.580;2023-12-07T06:05:54;19.27;;;10.27;;
35128;SDS011;21301;43.626;10.580;2023-12-07T06:08:21;20.20;;;10.57;;
35128;SDS011;21301;43.626;10.580;2023-12-07T06:10:47;25.65;;;11.40;;
35128;SDS011;21301;43.626;10.580;2023-12-07T06:13:13;25.23;;;11.50;;
35128;SDS011;21301;43.626;10.580;2023-12-07T06:15:39;22.90;;;12.43;;
35128;SDS011;21301;43.626;10.580;2023-12-07T06:18:06;21.60;;;9.55;;
35128;SDS011;21301;43.626;10.580;2023-12-07T06:20:32;31.05;;;10.43;;
35128;SDS011;21301;43.626;10.580;2023-12-07T06:23:00;19.38;;;9.65;;
35128;SDS011;21301;43.626;10.580;2023-12-07T06:25:27;20.85;;;9.68;;
35128;SDS011;21301;43.626;10.580;2023-12-07T06:27:52;26.88;;;9.45;;
35128;SDS011;21301;43.626;10.580;2023-12-07T06:30:18;17.02;;;8.75;;
35128;SDS011;21301;43.626;10.580;2023-12-07T06:32:44;21.60;;;10.02;;
35128;SDS011;21301;43.626;10.580;2023-12-07T06:35:12;19.00;;;8.27;;
35128;SDS011;21301;43.626;10.580;2023-12-07T06:37:38;18.75;;;7.93;;
35128;SDS011;21301;43.626;10.580;2023-12-07T06:40:06;21.42;;;9.05;;
35128;SDS011;21301;43.626;10.580;2023-12-07T06:42:36;19.77;;;8.15;;
35128;SDS011;21301;43.626;10.580;2023-12-07T06:45:01;16.50;;;7.68;;
35128;SDS011;21301;43.626;10.580;2023-12-07T06:47:27;14.35;;;6.78;;
35128;SDS011;21301;43.626;10.580;2023-12-07T06:49:53;16.85;;;8.38;;
35128;SDS011;21301;43.626;10.580;2023-12-07T06:52:20;16.27;;;9.05;;
35128;SDS011;21301;43.626;10.580;2023-12-07T06:54:46;16.48;;;7.20;;
35128;SDS011;21301;43.626;10.580;2023-12-07T06:57:12;17.88;;;9.07;;
35128;SDS011;21301;43.626;10.580;2023-12-07T06:59:40;19.98;;;7.57;;
35128;SDS011;21301;43.626;10.580;2023-12-07T07:02:15;16.65;;;7.15;;
35128;SDS011;21301;43.626;10.580;2023-12-07T07:04:40;17.92;;;7.25;;
35128;SDS011;21301;43.626;10.580;2023-12-07T07:07:06;16.70;;;7.80;;
35128;SDS011;21301;43.626;10.580;2023-12-07T07:09:31;23.02;;;8.07;;
35128;SDS011;21301;43.626;10.580;2023-12-07T07:11:59;15.45;;;7.18;;
35128;SDS011;21301;43.626;10.580;2023-12-07T07:14:27;19.45;;;9.55;;
35128;SDS011;21301;43.626;10.580;2023-12-07T07:16:53;17.70;;;8.55;;
35128;SDS011;21301;43.626;10.580;2023-12-07T07:19:19;26.08;;;9.50;;
35128;SDS011;21301;43.626;10.580;2023-12-07T07:21:44;20.15;;;8.95;;
35128;SDS011;21301;43.626;10.580;2023-12-07T07:24:10;20.40;;;9.00;;
35128;SDS011;21301;43.626;10.580;2023-12-07T07:26:37;20.88;;;8.88;;
35128;SDS011;21301;43.626;10.580;2023-12-07T07:29:03;21.42;;;9.50;;
35128;SDS011;21301;43.626;10.580;2023-12-07T07:31:29;15.25;;;7.65;;
35128;SDS011;21301;43.626;10.580;2023-12-07T07:33:56;18.00;;;8.68;;
35128;SDS011;21301;43.626;10.580;2023-12-07T07:36:22;20.08;;;9.07;;
35128;SDS011;21301;43.626;10.580;2023-12-07T07:38:47;19.13;;;8.73;;
35128;SDS011;21301;43.626;10.580;2023-12-07T07:41:13;20.42;;;8.38;;
35128;SDS011;21301;43.626;10.580;2023-12-07T07:43:39;23.73;;;7.95;;
35128;SDS011;21301;43.626;10.580;2023-12-07T07:46:05;11.77;;;6.72;;
35128;SDS011;21301;43.626;10.580;2023-12-07T07:48:31;16.98;;;9.20;;
35128;SDS011;21301;43.626;10.580;2023-12-07T07:50:57;15.57;;;6.47;;
35128;SDS011;21301;43.626;10.580;2023-12-07T07:53:23;17.98;;;7.53;;
35128;SDS011;21301;43.626;10.580;2023-12-07T07:55:50;21.35;;;7.13;;
35128;SDS011;21301;43.626;10.580;2023-12-07T07:58:15;11.30;;;5.85;;
35128;SDS011;21301;43.626;10.580;2023-12-07T08:00:41;15.68;;;6.93;;
35128;SDS011;21301;43.626;10.580;2023-12-07T08:03:07;16.98;;;8.45;;
35128;SDS011;21301;43.626;10.580;2023-12-07T08:05:33;13.27;;;7.43;;
35128;SDS011;21301;43.626;10.580;2023-12-07T08:07:59;14.32;;;6.95;;
35128;SDS011;21301;43.626;10.580;2023-12-07T08:10:24;16.83;;;9.30;;
35128;SDS011;21301;43.626;10.580;2023-12-07T08:12:50;13.73;;;6.75;;
35128;SDS011;21301;43.626;10.580;2023-12-07T08:15:16;13.43;;;7.82;;
35128;SDS011;21301;43.626;10.580;2023-12-07T08:17:41;14.32;;;6.30;;
35128;SDS011;21301;43.626;10.580;2023-12-07T08:20:08;17.10;;;7.68;;
35128;SDS011;21301;43.626;10.580;2023-12-07T08:22:36;13.90;;;6.97;;
35128;SDS011;21301;43.626;10.580;2023-12-07T08:25:05;11.00;;;6.30;;
35128;SDS011;21301;43.626;10.580;2023-12-07T08:27:33;16.75;;;8.05;;
35128;SDS011;21301;43.626;10.580;2023-12-07T08:29:59;16.13;;;7.20;;
35128;SDS011;21301;43.626;10.580;2023-12-07T08:32:25;15.45;;;7.18;;
35128;SDS011;21301;43.626;10.580;2023-12-07T08:34:51;16.52;;;8.18;;
35128;SDS011;21301;43.626;10.580;2023-12-07T08:37:17;16.65;;;7.60;;
35128;SDS011;21301;43.626;10.580;2023-12-07T08:39:43;17.75;;;8.90;;
35128;SDS011;21301;43.626;10.580;2023-12-07T08:42:09;19.92;;;9.93;;
35128;SDS011;21301;43.626;10.580;2023-12-07T08:44:35;18.48;;;10.48;;
35128;SDS011;21301;43.626;10.580;2023-12-07T08:47:00;20.50;;;9.75;;
35128;SDS011;21301;43.626;10.580;2023-12-07T08:49:28;20.63;;;9.75;;
35128;SDS011;21301;43.626;10.580;2023-12-07T08:51:54;22.85;;;9.48;;
35128;SDS011;21301;43.626;10.580;2023-12-07T08:54:19;19.73;;;9.20;;
35128;SDS011;21301;43.626;10.580;2023-12-07T08:56:46;18.40;;;7.47;;
35128;SDS011;21301;43.626;10.580;2023-12-07T08:59:12;21.52;;;9.55;;
35128;SDS011;21301;43.626;10.580;2023-12-07T09:01:37;20.13;;;8.88;;
35128;SDS011;21301;43.626;10.580;2023-12-07T09:04:03;20.38;;;9.27;;
35128;SDS011;21301;43.626;10.580;2023-12-07T09:06:29;24.02;;;11.48;;
35128;SDS011;21301;43.626;10.580;2023-12-07T09:08:54;24.20;;;11.13;;
35128;SDS011;21301;43.626;10.580;2023-12-07T09:11:21;21.25;;;10.70;;
35128;SDS011;21301;43.626;10.580;2023-12-07T09:13:47;21.08;;;9.38;;
35128;SDS011;21301;43.626;10.580;2023-12-07T09:16:13;20.48;;;10.45;;
35128;SDS011;21301;43.626;10.580;2023-12-07T09:18:41;20.25;;;8.68;;
35128;SDS011;21301;43.626;10.580;2023-12-07T09:21:07;23.90;;;11.18;;
35128;SDS011;21301;43.626;10.580;2023-12-07T09:23:33;19.40;;;11.50;;
35128;SDS011;21301;43.626;10.580;2023-12-07T09:26:00;19.20;;;9.65;;
35128;SDS011;21301;43.626;10.580;2023-12-07T09:28:25;22.13;;;11.90;;
35128;SDS011;21301;43.626;10.580;2023-12-07T09:30:51;24.55;;;11.70;;
35128;SDS011;21301;43.626;10.580;2023-12-07T09:33:17;24.30;;;11.30;;
35128;SDS011;21301;43.626;10.580;2023-12-07T09:35:42;22.05;;;11.60;;
35128;SDS011;21301;43.626;10.580;2023-12-07T09:38:08;22.23;;;10.68;;
35128;SDS011;21301;43.626;10.580;2023-12-07T09:40:35;20.65;;;10.32;;
35128;SDS011;21301;43.626;10.580;2023-12-07T09:43:00;23.48;;;10.85;;
35128;SDS011;21301;43.626;10.580;2023-12-07T09:45:26;22.92;;;11.20;;
35128;SDS011;21301;43.626;10.580;2023-12-07T09:47:52;23.00;;;11.15;;
35128;SDS011;21301;43.626;10.580;2023-12-07T09:50:21;19.35;;;9.95;;
35128;SDS011;21301;43.626;10.580;2023-12-07T09:52:48;18.95;;;9.32;;
35128;SDS011;21301;43.626;10.580;2023-12-07T09:55:17;21.60;;;10.13;;
35128;SDS011;21301;43.626;10.580;2023-12-07T09:57:45;19.75;;;8.90;;
35128;SDS011;21301;43.626;10.580;2023-12-07T10:00:11;16.65;;;8.25;;
35128;SDS011;21301;43.626;10.580;2023-12-07T10:02:40;18.52;;;9.95;;
35128;SDS011;21301;43.626;10.580;2023-12-07T10:05:09;18.70;;;11.00;;
35128;SDS011;21301;43.626;10.580;2023-12-07T10:07:39;18.83;;;9.80;;
35128;SDS011;21301;43.626;10.580;2023-12-07T10:10:05;19.92;;;9.85;;
35128;SDS011;21301;43.626;10.580;2023-12-07T10:12:32;18.23;;;9.40;;
35128;SDS011;21301;43.626;10.580;2023-12-07T10:15:00;19.52;;;10.45;;
35128;SDS011;21301;43.626;10.580;2023-12-07T10:20:19;18.13;;;10.05;;
35128;SDS011;21301;43.626;10.580;2023-12-07T10:23:00;19.23;;;9.45;;
35128;SDS011;21301;43.626;10.580;2023-12-07T10:25:26;15.95;;;8.27;;
35128;SDS011;21301;43.626;10.580;2023-12-07T10:27:52;18.98;;;9.35;;
35128;SDS011;21301;43.626;10.580;2023-12-07T10:30:20;19.58;;;9.18;;
35128;SDS011;21301;43.626;10.580;2023-12-07T10:32:51;16.60;;;8.05;;
35128;SDS011;21301;43.626;10.580;2023-12-07T10:35:18;18.80;;;8.35;;
35128;SDS011;21301;43.626;10.580;2023-12-07T10:37:49;23.00;;;9.10;;
35128;SDS011;21301;43.626;10.580;2023-12-07T10:40:15;17.98;;;9.60;;
35128;SDS011;21301;43.626;10.580;2023-12-07T10:42:42;19.98;;;9.95;;
35128;SDS011;21301;43.626;10.580;2023-12-07T10:45:14;17.05;;;9.13;;
35128;SDS011;21301;43.626;10.580;2023-12-07T10:47:43;17.10;;;9.77;;
35128;SDS011;21301;43.626;10.580;2023-12-07T10:50:12;17.25;;;9.60;;
35128;SDS011;21301;43.626;10.580;2023-12-07T10:52:45;16.55;;;8.52;;
35128;SDS011;21301;43.626;10.580;2023-12-07T10:55:22;16.52;;;9.15;;
35128;SDS011;21301;43.626;10.580;2023-12-07T10:57:56;17.30;;;8.98;;
35128;SDS011;21301;43.626;10.580;2023-12-07T11:00:25;17.23;;;8.32;;
35128;SDS011;21301;43.626;10.580;2023-12-07T11:02:56;15.57;;;9.38;;
35128;SDS011;21301;43.626;10.580;2023-12-07T11:05:25;12.68;;;6.80;;
35128;SDS011;21301;43.626;10.580;2023-12-07T11:08:02;10.13;;;6.07;;
35128;SDS011;21301;43.626;10.580;2023-12-07T11:10:50;11.48;;;6.03;;
35128;SDS011;21301;43.626;10.580;2023-12-07T11:13:37;13.25;;;6.50;;
35128;SDS011;21301;43.626;10.580;2023-12-07T11:16:04;11.82;;;6.13;;
35128;SDS011;21301;43.626;10.580;2023-12-07T11:18:31;15.07;;;7.22;;
35128;SDS011;21301;43.626;10.580;2023-12-07T11:20:58;11.48;;;6.53;;
35128;SDS011;21301;43.626;10.580;2023-12-07T11:23:24;11.45;;;6.22;;
35128;SDS011;21301;43.626;10.580;2023-12-07T11:25:52;11.48;;;7.18;;
35128;SDS011;21301;43.626;10.580;2023-12-07T11:28:33;16.92;;;7.25;;
35128;SDS011;21301;43.626;10.580;2023-12-07T11:31:08;12.60;;;7.72;;
35128;SDS011;21301;43.626;10.580;2023-12-07T11:33:37;15.38;;;8.30;;
35128;SDS011;21301;43.626;10.580;2023-12-07T11:38:39;12.80;;;6.28;;
35128;SDS011;21301;43.626;10.580;2023-12-07T11:41:29;13.05;;;6.85;;
35128;SDS011;21301;43.626;10.580;2023-12-07T11:43:58;10.52;;;6.43;;
35128;SDS011;21301;43.626;10.580;2023-12-07T11:46:24;16.15;;;7.82;;
35128;SDS011;21301;43.626;10.580;2023-12-07T11:48:54;12.05;;;6.97;;
35128;SDS011;21301;43.626;10.580;2023-12-07T11:51:21;17.80;;;9.15;;
35128;SDS011;21301;43.626;10.580;2023-12-07T11:53:48;15.73;;;9.73;;
35128;SDS011;21301;43.626;10.580;2023-12-07T11:56:15;14.85;;;7.88;;
35128;SDS011;21301;43.626;10.580;2023-12-07T11:58:47;14.57;;;7.93;;
35128;SDS011;21301;43.626;10.580;2023-12-07T12:01:16;16.90;;;7.97;;
35128;SDS011;21301;43.626;10.580;2023-12-07T12:03:42;12.07;;;7.97;;
35128;SDS011;21301;43.626;10.580;2023-12-07T12:06:09;13.07;;;7.60;;
35128;SDS011;21301;43.626;10.580;2023-12-07T12:08:38;12.98;;;6.95;;
35128;SDS011;21301;43.626;10.580;2023-12-07T12:11:09;14.20;;;8.18;;
35128;SDS011;21301;43.626;10.580;2023-12-07T12:13:39;14.07;;;8.30;;
35128;SDS011;21301;43.626;10.580;2023-12-07T12:16:07;13.88;;;8.82;;
35128;SDS011;21301;43.626;10.580;2023-12-07T12:18:34;21.30;;;9.70;;
35128;SDS011;21301;43.626;10.580;2023-12-07T12:21:01;18.23;;;9.45;;
35128;SDS011;21301;43.626;10.580;2023-12-07T12:23:27;18.00;;;10.43;;
35128;SDS011;21301;43.626;10.580;2023-12-07T12:25:54;17.45;;;9.63;;
35128;SDS011;21301;43.626;10.580;2023-12-07T12:28:22;15.82;;;9.50;;
35128;SDS011;21301;43.626;10.580;2023-12-07T12:30:50;16.77;;;7.88;;
35128;SDS011;21301;43.626;10.580;2023-12-07T12:33:17;16.58;;;9.25;;
35128;SDS011;21301;43.626;10.580;2023-12-07T12:35:43;12.93;;;8.27;;
35128;SDS011;21301;43.626;10.580;2023-12-07T12:38:11;13.90;;;7.55;;
35128;SDS011;21301;43.626;10.580;2023-12-07T12:40:38;11.57;;;7.28;;
35128;SDS011;21301;43.626;10.580;2023-12-07T12:43:09;12.63;;;7.57;;
35128;SDS011;21301;43.626;10.580;2023-12-07T12:45:36;13.00;;;8.73;;
35128;SDS011;21301;43.626;10.580;2023-12-07T12:48:03;12.98;;;7.47;;
35128;SDS011;21301;43.626;10.580;2023-12-07T12:50:34;13.68;;;8.68;;
35128;SDS011;21301;43.626;10.580;2023-12-07T12:53:08;14.80;;;7.95;;
35128;SDS011;21301;43.626;10.580;2023-12-07T12:55:36;12.38;;;7.30;;
35128;SDS011;21301;43.626;10.580;2023-12-07T12:58:03;15.70;;;9.70;;
35128;SDS011;21301;43.626;10.580;2023-12-07T13:00:35;17.15;;;8.65;;
35128;SDS011;21301;43.626;10.580;2023-12-07T13:03:05;15.65;;;8.90;;
35128;SDS011;21301;43.626;10.580;2023-12-07T13:05:33;18.35;;;9.13;;
35128;SDS011;21301;43.626;10.580;2023-12-07T13:08:01;14.38;;;9.18;;
35128;SDS011;21301;43.626;10.580;2023-12-07T13:10:28;18.25;;;9.80;;
35128;SDS011;21301;43.626;10.580;2023-12-07T13:12:54;15.90;;;9.95;;
35128;SDS011;21301;43.626;10.580;2023-12-07T13:15:26;17.27;;;8.30;;
35128;SDS011;21301;43.626;10.580;2023-12-07T13:17:54;18.13;;;11.05;;
35128;SDS011;21301;43.626;10.580;2023-12-07T13:20:23;20.95;;;11.70;;
35128;SDS011;21301;43.626;10.580;2023-12-07T13:22:55;17.67;;;10.48;;
35128;SDS011;21301;43.626;10.580;2023-12-07T13:25:23;18.42;;;10.02;;
35128;SDS011;21301;43.626;10.580;2023-12-07T13:27:49;20.88;;;11.10;;
35128;SDS011;21301;43.626;10.580;2023-12-07T13:30:15;20.75;;;11.38;;
35128;SDS011;21301;43.626;10.580;2023-12-07T13:32:41;19.48;;;11.50;;
35128;SDS011;21301;43.626;10.580;2023-12-07T13:35:08;19.50;;;11.32;;
35128;SDS011;21301;43.626;10.580;2023-12-07T13:37:39;24.13;;;14.50;;
35128;SDS011;21301;43.626;10.580;2023-12-07T13:40:11;24.80;;;15.00;;
35128;SDS011;21301;43.626;10.580;2023-12-07T13:42:40;24.38;;;14.75;;
35128;SDS011;21301;43.626;10.580;2023-12-07T13:45:07;24.02;;;14.35;;
35128;SDS011;21301;43.626;10.580;2023-12-07T13:47:34;21.73;;;13.68;;
35128;SDS011;21301;43.626;10.580;2023-12-07T13:50:03;20.77;;;13.82;;
35128;SDS011;21301;43.626;10.580;2023-12-07T13:52:31;20.23;;;12.15;;
35128;SDS011;21301;43.626;10.580;2023-12-07T13:54:59;19.98;;;12.40;;
35128;SDS011;21301;43.626;10.580;2023-12-07T13:57:28;25.98;;;14.75;;
35128;SDS011;21301;43.626;10.580;2023-12-07T13:59:59;23.40;;;14.45;;
35128;SDS011;21301;43.626;10.580;2023-12-07T14:02:28;21.77;;;14.60;;
35128;SDS011;21301;43.626;10.580;2023-12-07T14:05:02;22.60;;;13.82;;
35128;SDS011;21301;43.626;10.580;2023-12-07T14:07:31;23.67;;;13.45;;
35128;SDS011;21301;43.626;10.580;2023-12-07T14:10:04;21.90;;;13.48;;
35128;SDS011;21301;43.626;10.580;2023-12-07T14:12:31;20.48;;;12.88;;
35128;SDS011;21301;43.626;10.580;2023-12-07T14:15:01;21.92;;;13.95;;
35128;SDS011;21301;43.626;10.580;2023-12-07T14:17:32;20.48;;;13.30;;
35128;SDS011;21301;43.626;10.580;2023-12-07T14:20:07;28.95;;;15.73;;
35128;SDS011;21301;43.626;10.580;2023-12-07T14:22:43;22.90;;;14.38;;
35128;SDS011;21301;43.626;10.580;2023-12-07T14:25:13;27.27;;;16.42;;
35128;SDS011;21301;43.626;10.580;2023-12-07T14:27:41;26.58;;;16.42;;
35128;SDS011;21301;43.626;10.580;2023-12-07T14:30:07;27.38;;;17.20;;
35128;SDS011;21301;43.626;10.580;2023-12-07T14:32:35;26.17;;;16.45;;
35128;SDS011;21301;43.626;10.580;2023-12-07T14:35:03;23.13;;;15.13;;
35128;SDS011;21301;43.626;10.580;2023-12-07T14:37:28;27.10;;;16.77;;
35128;SDS011;21301;43.626;10.580;2023-12-07T14:39:55;30.70;;;16.25;;
35128;SDS011;21301;43.626;10.580;2023-12-07T14:42:22;23.30;;;14.85;;
35128;SDS011;21301;43.626;10.580;2023-12-07T14:44:50;36.60;;;18.17;;